Time;durP1;ratioP1;P1;durP2;ratioP2;P2;SDS_P1;SDS_P2;PMS_P1;PMS_P2;Temp;Humidity;BMP_temperature;BMP_pressure;BME280_temperature;BME280_humidity;BME280_pressure;Samples;Min_cycle;Max_cycle;Signal;HPM_P1;HPM_P2
2023/09/17 00:01:11;;;;;;;23.33;5.38;;;;;;;18.59;100.00;100563.72;5030173;28;20253;-78
2023/09/17 00:03:38;;;;;;;28.63;5.78;;;;;;;18.59;100.00;100567.28;5030838;28;20294;-78
2023/09/17 00:06:06;;;;;;;43.47;10.57;;;;;;;18.52;100.00;100566.53;5011008;28;20269;-78
2023/09/17 00:08:33;;;;;;;20.10;4.68;;;;;;;18.51;100.00;100571.91;5011683;28;20313;-78
2023/09/17 00:11:00;;;;;;;35.55;8.45;;;;;;;18.54;100.00;100585.25;5016895;28;20242;-77
2023/09/17 00:13:26;;;;;;;21.35;4.65;;;;;;;18.60;100.00;100589.59;5024073;28;20223;-78
2023/09/17 00:15:53;;;;;;;26.83;6.20;;;;;;;18.74;100.00;100596.44;5022378;28;20242;-78
2023/09/17 00:18:20;;;;;;;23.35;4.80;;;;;;;18.70;100.00;100597.44;5029838;28;20222;-78
2023/09/17 00:20:47;;;;;;;21.08;4.63;;;;;;;18.61;100.00;100597.63;5018797;28;20223;-78
2023/09/17 00:23:13;;;;;;;27.98;5.72;;;;;;;18.44;100.00;100597.06;5013434;28;20604;-78
2023/09/17 00:25:41;;;;;;;29.42;6.55;;;;;;;18.28;100.00;100598.28;5017321;28;20314;-78
2023/09/17 00:28:07;;;;;;;32.40;7.93;;;;;;;18.00;100.00;100601.47;5018138;28;20692;-77
2023/09/17 00:30:34;;;;;;;22.92;5.13;;;;;;;18.05;100.00;100622.78;5016632;28;20231;-78
2023/09/17 00:33:01;;;;;;;32.95;8.52;;;;;;;18.05;100.00;100626.34;5006647;28;20251;-78
2023/09/17 00:35:28;;;;;;;16.67;3.85;;;;;;;18.15;100.00;100646.69;5035795;28;20233;-78
2023/09/17 00:37:54;;;;;;;23.83;5.63;;;;;;;18.15;100.00;100652.03;5028895;28;20583;-78
2023/09/17 00:40:23;;;;;;;23.83;5.18;;;;;;;18.19;100.00;100658.22;5030083;28;20225;-78
2023/09/17 00:42:50;;;;;;;25.15;5.88;;;;;;;18.20;100.00;100668.91;5035115;28;20317;-78
2023/09/17 00:45:16;;;;;;;17.38;4.07;;;;;;;18.11;100.00;100668.19;5037272;28;20241;-77
2023/09/17 00:47:43;;;;;;;22.25;5.00;;;;;;;18.12;100.00;100681.53;5021859;28;20227;-78
2023/09/17 00:50:10;;;;;;;42.22;10.07;;;;;;;18.12;100.00;100678.84;5032365;28;20298;-78
2023/09/17 00:52:38;;;;;;;21.42;4.93;;;;;;;18.12;100.00;100692.22;5032915;28;20317;-79
2023/09/17 00:55:05;;;;;;;27.02;7.43;;;;;;;18.03;100.00;100692.41;5025062;28;20514;-78
2023/09/17 00:57:32;;;;;;;17.00;4.57;;;;;;;17.99;100.00;100700.50;5015711;28;20238;-78
2023/09/17 00:59:59;;;;;;;31.10;8.25;;;;;;;18.01;100.00;100702.25;5014853;28;20230;-78
2023/09/17 01:02:27;;;;;;;21.88;4.78;;;;;;;18.03;100.00;100707.56;5023229;28;20233;-78
2023/09/17 01:04:54;;;;;;;25.23;5.82;;;;;;;18.07;100.00;100720.88;5026665;28;20227;-78
2023/09/17 01:07:22;;;;;;;14.85;3.45;;;;;;;18.05;100.00;100722.69;5035968;28;20230;-77
2023/09/17 01:09:50;;;;;;;24.15;5.22;;;;;;;18.02;100.00;100719.19;5034013;28;20599;-78
2023/09/17 01:12:17;;;;;;;17.27;3.85;;;;;;;18.03;100.00;100735.22;5030501;28;20235;-78
2023/09/17 01:14:46;;;;;;;21.48;5.32;;;;;;;17.85;100.00;100714.13;5031528;28;20231;-78
2023/09/17 01:17:13;;;;;;;18.95;4.38;;;;;;;17.95;100.00;100733.56;5029156;28;20238;-78
2023/09/17 01:19:42;;;;;;;19.15;4.57;;;;;;;17.97;100.00;100739.78;5039448;28;20227;-78
2023/09/17 01:22:26;;;;;;;42.33;10.38;;;;;;;17.96;100.00;100743.38;5022191;28;20234;-78
2023/09/17 01:25:18;;;;;;;27.00;6.70;;;;;;;17.89;100.00;100745.25;5031757;28;20280;-78
2023/09/17 01:27:45;;;;;;;22.65;5.35;;;;;;;17.92;100.00;100754.13;5037511;28;20611;-78
2023/09/17 01:30:15;;;;;;;17.92;4.10;;;;;;;17.89;100.00;100758.63;5028976;28;20238;-78
2023/09/17 01:32:43;;;;;;;28.42;6.22;;;;;;;17.95;100.00;100763.91;5035759;28;20226;-77
2023/09/17 01:35:12;;;;;;;34.38;8.82;;;;;;;17.98;100.00;100765.63;5032102;28;20299;-78
2023/09/17 01:37:43;;;;;;;19.15;4.72;;;;;;;18.00;100.00;100772.72;5028065;28;20233;-78
2023/09/17 01:40:14;;;;;;;29.35;6.70;;;;;;;18.05;100.00;100786.03;5034638;28;20316;-77
2023/09/17 01:42:46;;;;;;;30.48;6.78;;;;;;;18.03;100.00;100787.84;5038111;28;20591;-78
2023/09/17 01:45:13;;;;;;;16.88;3.75;;;;;;;18.04;100.00;100784.28;5035714;28;20609;-78
2023/09/17 01:47:42;;;;;;;24.23;5.18;;;;;;;18.05;100.00;100789.59;5030618;28;20237;-77
2023/09/17 01:50:11;;;;;;;40.75;10.43;;;;;;;18.03;100.00;100796.78;5038709;28;20227;-78
2023/09/17 01:52:39;;;;;;;26.83;6.53;;;;;;;18.05;100.00;100808.34;5033728;28;20227;-78
2023/09/17 01:55:08;;;;;;;36.60;9.32;;;;;;;18.02;100.00;100811.06;5023768;28;20285;-78
2023/09/17 01:57:35;;;;;;;25.25;5.30;;;;;;;18.03;100.00;100825.31;5027593;28;20234;-78
2023/09/17 02:00:14;;;;;;;37.40;9.35;;;;;;;18.04;100.00;100822.63;5040335;28;20226;-78
2023/09/17 02:02:46;;;;;;;30.48;6.40;;;;;;;17.94;100.00;100821.00;5035778;28;20231;-78
2023/09/17 02:05:16;;;;;;;17.30;4.35;;;;;;;17.97;100.00;100830.78;5028356;28;20280;-78
2023/09/17 02:07:44;;;;;;;20.30;5.35;;;;;;;17.98;100.00;100841.44;5031539;28;20241;-78
2023/09/17 02:10:11;;;;;;;23.00;5.20;;;;;;;17.96;100.00;100840.59;5028988;28;21367;-78
2023/09/17 02:12:38;;;;;;;25.58;5.25;;;;;;;17.90;100.00;100846.91;5026946;28;20223;-78
2023/09/17 02:15:06;;;;;;;27.40;7.25;;;;;;;17.91;100.00;100851.34;5022646;28;20756;-78
2023/09/17 02:17:33;;;;;;;20.42;4.43;;;;;;;17.86;100.00;100850.53;5026715;28;20227;-80
2023/09/17 02:19:59;;;;;;;28.90;7.22;;;;;;;17.82;100.00;100855.97;5011644;28;20230;-78
2023/09/17 02:22:26;;;;;;;20.85;4.57;;;;;;;17.89;100.00;100869.22;5031158;28;20242;-78
2023/09/17 02:24:53;;;;;;;26.63;6.13;;;;;;;17.88;100.00;100874.59;5039179;28;20297;-78
2023/09/17 02:27:20;;;;;;;18.85;5.00;;;;;;;17.85;100.00;100882.66;5014954;28;20239;-78
2023/09/17 02:29:47;;;;;;;19.00;4.30;;;;;;;17.86;100.00;100882.66;5027104;28;20300;-78
2023/09/17 02:32:14;;;;;;;16.15;4.10;;;;;;;17.92;100.00;100900.41;5031900;28;20242;-78
2023/09/17 02:34:40;;;;;;;24.23;6.03;;;;;;;17.94;100.00;100895.91;5040361;28;20693;-78
2023/09/17 02:37:07;;;;;;;42.90;10.48;;;;;;;17.93;100.00;100899.50;5026666;28;20237;-78
2023/09/17 02:39:35;;;;;;;17.95;4.05;;;;;;;17.96;100.00;100907.50;5023757;28;20235;-78
2023/09/17 02:42:03;;;;;;;36.30;9.15;;;;;;;17.97;100.00;100913.72;5027077;28;20258;-78
2023/09/17 02:44:29;;;;;;;20.35;4.93;;;;;;;17.89;100.00;100901.34;5031169;28;20226;-78
2023/09/17 02:46:56;;;;;;;36.70;9.30;;;;;;;17.88;100.00;100910.28;5030397;28;20238;-78
2023/09/17 02:49:23;;;;;;;19.90;4.45;;;;;;;17.79;100.00;100907.72;5022135;28;20717;-78
2023/09/17 02:51:50;;;;;;;22.40;5.07;;;;;;;17.78;100.00;100915.75;5039288;28;20603;-78
2023/09/17 02:54:17;;;;;;;20.23;5.07;;;;;;;17.75;100.00;100914.00;5042867;28;20244;-78
2023/09/17 02:56:43;;;;;;;21.98;5.22;;;;;;;17.74;100.00;100922.06;5025656;28;20238;-78
2023/09/17 02:59:11;;;;;;;23.35;5.57;;;;;;;17.71;100.00;100922.97;5030223;28;20238;-78
2023/09/17 03:01:38;;;;;;;21.98;5.20;;;;;;;17.65;100.00;100920.34;5028623;28;20241;-78
2023/09/17 03:04:06;;;;;;;32.08;8.25;;;;;;;17.72;100.00;100931.88;5024909;28;20227;-77
2023/09/17 03:06:33;;;;;;;19.77;4.63;;;;;;;17.66;100.00;100926.59;5017663;28;20242;-79
2023/09/17 03:09:01;;;;;;;36.50;9.23;;;;;;;17.63;100.00;100930.19;5020802;28;20235;-78
2023/09/17 03:11:28;;;;;;;20.00;5.03;;;;;;;17.66;100.00;100937.28;5038424;28;20230;-78
2023/09/17 03:13:55;;;;;;;26.48;7.28;;;;;;;17.65;100.00;100935.50;5039775;28;20230;-78
2023/09/17 03:16:22;;;;;;;18.70;4.05;;;;;;;17.64;100.00;100939.09;5040427;28;20226;-78
2023/09/17 03:18:49;;;;;;;22.23;4.65;;;;;;;17.58;100.00;100945.41;5037660;28;20694;-77
2023/09/17 03:21:16;;;;;;;19.77;4.32;;;;;;;17.66;100.00;100943.56;5032792;28;20225;-78
2023/09/17 03:23:43;;;;;;;18.90;4.78;;;;;;;17.62;100.00;100947.13;5020314;28;20242;-78
2023/09/17 03:26:10;;;;;;;43.70;11.18;;;;;;;17.66;100.00;100942.63;5034043;28;20238;-78
2023/09/17 03:28:37;;;;;;;25.00;5.32;;;;;;;17.59;100.00;100944.50;5035278;28;20231;-78
2023/09/17 03:31:04;;;;;;;33.75;8.50;;;;;;;17.55;100.00;100949.00;5025035;28;20241;-78
2023/09/17 03:33:30;;;;;;;25.33;5.93;;;;;;;17.54;100.00;100947.22;5035919;28;20230;-78
2023/09/17 03:35:58;;;;;;;38.72;9.63;;;;;;;17.48;100.00;100935.72;5033046;28;20233;-79
2023/09/17 03:38:25;;;;;;;20.52;4.50;;;;;;;17.48;100.00;100928.56;5041725;28;20227;-78
2023/09/17 03:40:52;;;;;;;24.88;5.53;;;;;;;17.48;100.00;100941.94;5019860;28;20593;-77
2023/09/17 03:43:19;;;;;;;17.33;4.35;;;;;;;17.41;100.00;100928.66;5037043;28;20325;-78
2023/09/17 03:45:45;;;;;;;20.20;4.57;;;;;;;17.47;100.00;100950.88;5025293;28;20317;-78
2023/09/17 03:48:12;;;;;;;24.95;5.47;;;;;;;17.49;100.00;100951.72;5016671;28;20291;-77
2023/09/17 03:50:40;;;;;;;20.58;4.50;;;;;;;17.44;100.00;100947.34;5029521;28;20288;-78
2023/09/17 03:53:07;;;;;;;40.30;10.05;;;;;;;17.38;100.00;100937.59;5030196;28;20237;-78
2023/09/17 03:55:34;;;;;;;26.05;6.28;;;;;;;17.42;100.00;100950.03;5033292;28;20218;-79
2023/09/17 03:58:01;;;;;;;30.00;7.15;;;;;;;17.44;100.00;100955.38;5032611;28;20219;-78
2023/09/17 04:00:28;;;;;;;28.73;6.15;;;;;;;17.40;100.00;100949.16;5020182;28;20232;-78
2023/09/17 04:02:55;;;;;;;26.55;6.53;;;;;;;17.40;100.00;100941.13;5019424;28;20223;-79
2023/09/17 04:05:22;;;;;;;15.25;4.35;;;;;;;17.37;100.00;100946.53;5021693;28;20244;-78
2023/09/17 04:07:48;;;;;;;21.50;4.63;;;;;;;17.40;100.00;100942.94;5031649;28;20234;-78
2023/09/17 04:10:17;;;;;;;22.73;5.03;;;;;;;17.42;100.00;100946.47;5034490;28;20755;-78
2023/09/17 04:12:44;;;;;;;26.70;7.50;;;;;;;17.41;100.00;100934.88;5029789;28;20242;-78
2023/09/17 04:15:16;;;;;;;22.90;5.82;;;;;;;17.39;100.00;100942.03;5014927;28;20422;-78
2023/09/17 04:17:44;;;;;;;21.52;5.13;;;;;;;17.35;100.00;100931.41;5026044;28;20230;-78
2023/09/17 04:20:13;;;;;;;75.78;13.50;;;;;;;17.32;100.00;100934.09;5000945;28;21333;-78
2023/09/17 04:22:42;;;;;;;20.50;5.32;;;;;;;17.32;100.00;100920.75;5017740;28;20257;-78
2023/09/17 04:25:11;;;;;;;23.00;5.15;;;;;;;17.27;100.00;100923.47;5019215;28;20242;-78
2023/09/17 04:27:42;;;;;;;15.77;4.72;;;;;;;17.31;100.00;100925.19;5031203;28;20273;-78
2023/09/17 04:30:11;;;;;;;51.25;9.20;;;;;;;17.37;100.00;100930.47;5018749;28;20256;-78
2023/09/17 04:32:39;;;;;;;15.77;3.95;;;;;;;17.40;100.00;100942.94;5030578;28;20321;-78
2023/09/17 04:35:15;;;;;;;78.50;15.73;;;;;;;17.31;100.00;100935.00;5030689;28;20234;-78
2023/09/17 04:37:44;;;;;;;22.65;5.90;;;;;;;17.38;100.00;100942.06;5017590;28;20231;-78
2023/09/17 04:40:11;;;;;;;30.85;6.95;;;;;;;17.33;100.00;100949.25;5025761;28;20371;-78
2023/09/17 04:42:40;;;;;;;23.75;5.97;;;;;;;17.12;100.00;100939.66;5035100;28;20279;-78
2023/09/17 04:45:08;;;;;;;43.30;10.10;;;;;;;17.54;100.00;100990.00;5026915;28;20235;-77
2023/09/17 04:47:38;;;;;;;22.05;4.78;;;;;;;17.51;100.00;100965.09;5036627;28;20280;-78
2023/09/17 04:50:09;;;;;;;48.13;11.02;;;;;;;17.47;100.00;100961.56;5020800;28;20231;-77
2023/09/17 04:52:36;;;;;;;37.80;8.20;;;;;;;17.43;100.00;100951.81;5018596;28;20227;-77
2023/09/17 04:55:05;;;;;;;39.30;10.05;;;;;;;17.38;100.00;100950.97;5021753;28;20235;-77
2023/09/17 04:57:31;;;;;;;21.80;4.60;;;;;;;17.32;100.00;100956.38;5037266;28;20231;-78
2023/09/17 05:00:00;;;;;;;40.67;10.75;;;;;;;17.22;100.00;100944.91;5037126;28;20230;-78
2023/09/17 05:02:27;;;;;;;34.63;7.25;;;;;;;17.20;100.00;100948.47;5034201;28;20276;-78
2023/09/17 05:04:54;;;;;;;47.17;10.48;;;;;;;17.18;100.00;100953.84;5023374;28;20249;-78
2023/09/17 05:07:21;;;;;;;15.00;3.40;;;;;;;17.20;100.00;100953.81;5035026;28;20677;-78
2023/09/17 05:09:48;;;;;;;28.20;7.00;;;;;;;17.18;100.00;100951.16;5027258;28;20235;-78
2023/09/17 05:12:15;;;;;;;25.35;5.82;;;;;;;17.23;100.00;100968.06;5010062;28;20571;-79
2023/09/17 05:14:42;;;;;;;30.70;6.25;;;;;;;17.18;100.00;100972.56;5030053;28;20229;-78
2023/09/17 05:17:09;;;;;;;50.88;12.50;;;;;;;17.22;100.00;100981.44;5028096;28;20246;-78
2023/09/17 05:19:36;;;;;;;21.15;4.50;;;;;;;17.22;100.00;100984.09;5031238;28;20226;-79
2023/09/17 05:22:03;;;;;;;43.00;10.73;;;;;;;17.30;100.00;100994.72;5036357;28;20315;-78
2023/09/17 05:24:29;;;;;;;20.52;5.72;;;;;;;17.30;100.00;100995.59;5040347;28;20244;-78
2023/09/17 05:26:56;;;;;;;40.40;10.07;;;;;;;17.31;100.00;100988.47;5033210;28;20238;-78
2023/09/17 05:29:23;;;;;;;36.42;7.70;;;;;;;17.25;100.00;100995.66;5026314;28;20322;-78
2023/09/17 05:31:50;;;;;;;30.27;6.35;;;;;;;17.29;100.00;101004.53;5035556;28;20229;-78
2023/09/17 05:34:19;;;;;;;27.67;5.93;;;;;;;17.15;100.00;100987.72;5022180;28;20254;-78
2023/09/17 05:36:46;;;;;;;27.27;6.28;;;;;;;17.12;100.00;100991.31;5021444;28;20226;-78
2023/09/17 05:39:13;;;;;;;18.40;3.78;;;;;;;17.19;100.00;100995.72;5029418;28;20249;-78
2023/09/17 05:41:39;;;;;;;18.42;4.35;;;;;;;17.25;100.00;101011.69;5037837;28;20227;-79
2023/09/17 05:44:06;;;;;;;38.92;10.95;;;;;;;17.30;100.00;101022.34;5047535;28;20242;-78
2023/09/17 05:46:34;;;;;;;22.10;5.35;;;;;;;17.30;100.00;101024.13;5014042;28;20234;-78
2023/09/17 05:49:00;;;;;;;40.38;10.15;;;;;;;17.34;100.00;101037.44;5015064;28;20256;-79
2023/09/17 05:51:27;;;;;;;18.45;3.85;;;;;;;17.33;100.00;101034.78;5022456;28;20321;-80
2023/09/17 05:53:54;;;;;;;24.58;5.63;;;;;;;17.35;100.00;101041.00;5017110;28;20257;-79
2023/09/17 05:56:20;;;;;;;22.05;4.97;;;;;;;17.33;100.00;101041.03;5015889;28;20230;-79
2023/09/17 05:58:47;;;;;;;20.75;4.57;;;;;;;17.39;100.00;101046.31;5025783;28;20230;-79
2023/09/17 06:01:15;;;;;;;22.70;5.65;;;;;;;17.38;100.00;101046.34;5008434;28;20253;-79
2023/09/17 06:03:42;;;;;;;21.17;4.38;;;;;;;17.42;100.00;101056.09;5031703;28;20246;-79
2023/09/17 06:06:08;;;;;;;41.75;10.85;;;;;;;17.43;100.00;101060.53;5033485;28;20226;-78
2023/09/17 06:08:35;;;;;;;31.98;6.95;;;;;;;17.46;100.00;101063.19;5023177;28;20233;-79
2023/09/17 06:11:02;;;;;;;48.95;11.95;;;;;;;17.48;100.00;101067.63;5018278;28;20239;-78
2023/09/17 06:13:29;;;;;;;18.42;4.85;;;;;;;17.51;100.00;101072.06;5019302;28;20245;-78
2023/09/17 06:15:55;;;;;;;31.20;7.82;;;;;;;17.51;100.00;101067.59;5034509;28;20739;-79
2023/09/17 06:18:22;;;;;;;25.00;5.80;;;;;;;17.56;100.00;101079.13;5042219;28;20250;-79
2023/09/17 06:20:49;;;;;;;21.98;5.05;;;;;;;17.61;100.00;101087.13;5028752;28;20250;-78
2023/09/17 06:23:16;;;;;;;24.92;5.88;;;;;;;17.64;100.00;101087.09;5011542;28;20239;-78
2023/09/17 06:25:43;;;;;;;24.40;5.47;;;;;;;17.68;100.00;101093.31;5038925;28;20711;-78
2023/09/17 06:28:10;;;;;;;49.25;12.07;;;;;;;17.74;100.00;101101.28;5024385;28;20241;-78
2023/09/17 06:30:37;;;;;;;18.38;3.85;;;;;;;17.79;100.00;101096.78;5042820;28;20221;-78
2023/09/17 06:33:04;;;;;;;41.30;10.15;;;;;;;17.82;100.00;101091.41;5026961;28;20230;-78
2023/09/17 06:35:31;;;;;;;23.40;6.55;;;;;;;17.85;100.00;101089.59;5028355;28;20283;-78
2023/09/17 06:37:58;;;;;;;41.20;10.30;;;;;;;17.92;100.00;101101.09;5034831;28;20244;-78
2023/09/17 06:40:25;;;;;;;23.52;4.97;;;;;;;17.92;100.00;101088.63;5037876;28;20262;-78
2023/09/17 06:42:51;;;;;;;23.10;6.50;;;;;;;18.00;100.00;101093.88;5031918;28;20230;-79
2023/09/17 06:45:18;;;;;;;17.98;4.18;;;;;;;18.08;100.00;101097.38;5036997;28;20230;-78
2023/09/17 06:47:46;;;;;;;24.75;5.53;;;;;;;18.12;100.00;101099.09;5026974;28;20246;-78
2023/09/17 06:50:13;;;;;;;23.42;6.53;;;;;;;18.14;100.00;101108.00;5018042;28;20283;-78
2023/09/17 06:52:40;;;;;;;29.08;7.25;;;;;;;18.15;100.00;101107.09;5021514;28;20239;-78
2023/09/17 06:55:06;;;;;;;49.45;12.82;;;;;;;18.19;100.00;101108.84;5030871;28;20226;-78
2023/09/17 06:57:33;;;;;;;22.63;5.78;;;;;;;18.23;100.00;101112.41;5040165;28;20245;-78
2023/09/17 07:00:01;;;;;;;39.10;11.23;;;;;;;18.35;100.00;101119.41;5034100;28;20231;-78
2023/09/17 07:02:28;;;;;;;23.10;5.28;;;;;;;18.38;100.00;101124.72;5030218;28;20596;-78
2023/09/17 07:04:55;;;;;;;28.02;7.10;;;;;;;18.46;100.00;101125.50;5044083;28;20258;-78
2023/09/17 07:07:22;;;;;;;20.80;5.28;;;;;;;18.50;100.00;101133.50;5040296;28;20689;-78
2023/09/17 07:09:49;;;;;;;35.25;7.75;;;;;;;18.61;100.00;101140.50;5036267;28;20395;-78
2023/09/17 07:12:16;;;;;;;30.60;8.07;;;;;;;18.78;100.00;101147.44;5022205;28;20222;-78
2023/09/17 07:14:43;;;;;;;28.35;7.03;;;;;;;18.82;100.00;101149.19;5031301;28;20241;-78
2023/09/17 07:17:10;;;;;;;39.25;11.25;;;;;;;18.85;100.00;101148.25;5007677;28;20227;-78
2023/09/17 07:19:37;;;;;;;29.00;7.32;;;;;;;18.91;100.00;101152.63;5026590;28;20231;-78
2023/09/17 07:22:04;;;;;;;39.53;10.90;;;;;;;19.08;100.00;101164.00;5028892;28;20257;-78
2023/09/17 07:24:32;;;;;;;22.67;5.60;;;;;;;19.10;100.00;101160.41;5039288;28;20250;-78
2023/09/17 07:26:59;;;;;;;35.90;9.85;;;;;;;19.20;100.00;101161.16;5028551;28;20240;-78
2023/09/17 07:29:26;;;;;;;20.60;5.05;;;;;;;19.27;100.00;101164.63;5034802;28;20232;-78
2023/09/17 07:31:53;;;;;;;24.25;6.03;;;;;;;19.37;100.00;101167.16;5029582;28;20245;-79
2023/09/17 07:34:20;;;;;;;21.67;6.38;;;;;;;19.45;100.00;101158.97;5032434;28;20250;-78
2023/09/17 07:36:47;;;;;;;36.17;8.20;;;;;;;19.52;100.00;101166.09;5024940;28;20227;-78
2023/09/17 07:39:13;;;;;;;27.02;6.75;;;;;;;19.52;100.00;101149.06;4995025;28;20242;-78
2023/09/17 07:41:40;;;;;;;21.45;5.32;;;;;;;19.55;100.00;101147.25;5027616;28;20227;-78
2023/09/17 07:44:07;;;;;;;46.45;12.57;;;;;;;19.66;100.00;101147.06;5032706;28;20234;-78
2023/09/17 07:46:34;;;;;;;24.33;5.82;;;;;;;19.78;100.00;101145.06;5023696;28;20230;-78
2023/09/17 07:49:01;;;;;;;37.30;10.95;;;;;;;19.80;100.00;101140.56;5035186;28;20225;-77
2023/09/17 07:51:27;;;;;;;23.92;5.55;;;;;;;20.06;100.00;101147.25;5036592;28;20237;-79
2023/09/17 07:53:54;;;;;;;30.25;8.05;;;;;;;19.99;100.00;101127.69;5017033;28;20234;-78
2023/09/17 07:56:21;;;;;;;23.75;6.47;;;;;;;20.16;100.00;101127.34;5041435;28;20232;-78
2023/09/17 07:58:50;;;;;;;33.10;9.32;;;;;;;20.24;100.00;101127.22;5023802;28;20238;-79
2023/09/17 08:01:17;;;;;;;26.08;6.18;;;;;;;20.30;100.00;101116.34;5029594;28;20670;-78
2023/09/17 08:03:44;;;;;;;24.48;7.18;;;;;;;20.39;100.00;101100.97;5042840;28;20226;-78
2023/09/17 08:06:12;;;;;;;31.58;9.68;;;;;;;20.59;100.00;101105.03;5020964;28;21865;-79
2023/09/17 08:08:38;;;;;;;25.92;6.35;;;;;;;20.62;100.00;101092.41;5026157;28;20218;-78
2023/09/17 08:11:06;;;;;;;37.28;9.45;;;;;;;20.76;100.00;101076.84;5027619;28;20234;-79
2023/09/17 08:13:33;;;;;;;30.85;7.07;;;;;;;20.82;100.00;101056.16;5020803;28;20231;-79
2023/09/17 08:16:00;;;;;;;36.55;9.77;;;;;;;20.94;100.00;101045.13;5012908;28;20234;-79
2023/09/17 08:18:27;;;;;;;28.40;6.75;;;;;;;21.12;100.00;101033.91;5024012;28;20327;-80
2023/09/17 08:20:54;;;;;;;28.08;7.88;;;;;;;21.27;100.00;101019.22;5020062;28;20296;-80
2023/09/17 08:23:21;;;;;;;18.88;5.40;;;;;;;21.38;100.00;101001.00;5037709;28;20231;-81
2023/09/17 08:25:48;;;;;;;26.95;6.95;;;;;;;21.37;100.00;100975.91;5038290;28;20252;-80
2023/09/17 08:28:15;;;;;;;18.38;5.03;;;;;;;21.46;100.00;100958.63;5021561;28;20227;-80
2023/09/17 08:30:42;;;;;;;24.92;6.80;;;;;;;21.36;100.00;100931.09;5035935;28;20230;-81
2023/09/17 08:33:10;;;;;;;36.53;10.48;;;;;;;21.57;100.00;100916.13;5026999;28;20245;-81
2023/09/17 08:35:37;;;;;;;18.88;4.50;;;;;;;21.69;100.00;100913.09;5027862;28;20232;-80
2023/09/17 08:38:04;;;;;;;35.22;8.57;;;;;;;21.93;100.00;100892.63;5009344;28;20583;-80
2023/09/17 08:40:34;;;;;;;13.75;3.88;;;;;;;22.25;100.00;100880.91;5022617;28;20614;-79
2023/09/17 08:43:02;;;;;;;51.10;12.82;;;;;;;22.21;100.00;100846.94;5007136;28;20249;-80
2023/09/17 08:45:30;;;;;;;21.23;5.90;;;;;;;22.35;100.00;100819.53;5021339;28;20255;-80
2023/09/17 08:47:58;;;;;;;47.35;10.90;;;;;;;22.40;100.00;100787.91;5020444;28;20257;-80
2023/09/17 08:50:28;;;;;;;18.35;4.90;;;;;;;22.53;100.00;100769.50;5036828;28;20303;-80
2023/09/17 08:52:59;;;;;;;32.85;7.00;;;;;;;22.75;100.00;100753.44;5010837;28;20234;-80
2023/09/17 08:55:26;;;;;;;14.27;3.88;;;;;;;22.94;100.00;100724.91;5017585;28;20241;-79
2023/09/17 08:58:02;;;;;;;18.27;4.47;;;;;;;23.18;100.00;100702.38;5017433;28;20314;-82
2023/09/17 09:00:31;;;;;;;16.02;4.63;;;;;;;23.37;100.00;100669.28;5040142;28;20287;-80
2023/09/17 09:03:03;;;;;;;48.50;11.15;;;;;;;23.54;100.00;100632.63;5027417;28;20226;-80
2023/09/17 09:05:31;;;;;;;18.70;5.57;;;;;;;23.61;100.00;100592.75;5029395;28;20258;-81
2023/09/17 09:07:58;;;;;;;26.45;6.82;;;;;;;23.78;100.00;100568.63;5022641;28;20283;-80
2023/09/17 09:10:25;;;;;;;14.20;4.15;;;;;;;24.08;100.00;100555.59;5023584;28;20222;-80
2023/09/17 09:12:52;;;;;;;16.50;4.50;;;;;;;24.28;100.00;100527.69;5004222;28;20242;-82
2023/09/17 09:15:19;;;;;;;15.25;3.95;;;;;;;24.25;100.00;100496.25;5040854;28;20624;-80
2023/09/17 09:17:46;;;;;;;20.15;4.03;;;;;;;24.47;100.00;100488.03;5040028;28;20307;-80
2023/09/17 09:20:19;;;;;;;25.00;5.35;;;;;;;24.51;100.00;100453.63;5025385;28;20262;-80
2023/09/17 09:22:46;;;;;;;24.02;5.28;;;;;;;24.61;100.00;100451.34;5020005;28;20665;-80
2023/09/17 09:25:14;;;;;;;13.15;3.30;;;;;;;24.67;100.00;100421.31;5029013;28;20296;-80
2023/09/17 09:27:42;;;;;;;16.35;3.80;;;;;;;24.81;100.00;100417.00;5037161;28;20262;-81
2023/09/17 09:30:10;;;;;;;28.52;6.82;;;;;;;24.91;100.00;100378.66;5034882;28;20229;-80
2023/09/17 09:32:37;;;;;;;35.75;8.25;;;;;;;25.32;100.00;100390.09;5025204;28;20596;-81
2023/09/17 09:35:05;;;;;;;27.02;7.72;;;;;;;25.43;100.00;100385.84;5011378;28;20224;-81
2023/09/17 09:37:34;;;;;;;16.50;3.88;;;;;;;25.40;100.00;100361.66;5035955;28;20246;-79
2023/09/17 09:40:02;;;;;;;36.00;8.32;;;;;;;25.31;100.00;100317.94;5025979;28;20287;-82
2023/09/17 09:42:29;;;;;;;18.40;4.40;;;;;;;25.41;100.00;100303.84;5005499;28;20234;-81
2023/09/17 09:44:57;;;;;;;21.80;5.22;;;;;;;25.71;100.00;100313.97;5036936;28;20307;-82
2023/09/17 09:47:23;;;;;;;26.25;5.40;;;;;;;25.77;100.00;100300.09;5048699;28;20619;-81
2023/09/17 09:49:50;;;;;;;21.15;4.43;;;;;;;25.75;100.00;100277.63;5022332;28;20238;-82
2023/09/17 09:52:21;;;;;;;21.65;4.95;;;;;;;25.88;100.00;100277.81;5023404;28;20234;-83
2023/09/17 09:54:48;;;;;;;21.58;5.72;;;;;;;25.96;100.00;100265.59;5010034;28;20226;-80
2023/09/17 09:57:15;;;;;;;21.40;5.22;;;;;;;26.09;100.00;100239.56;5029535;28;20263;-81
2023/09/17 09:59:45;;;;;;;21.15;5.32;;;;;;;26.21;100.00;100232.53;5025942;28;20253;-81
2023/09/17 10:02:13;;;;;;;18.73;4.28;;;;;;;26.29;100.00;100230.25;5023023;28;20332;-82
2023/09/17 10:04:41;;;;;;;16.88;3.88;;;;;;;26.56;100.00;100229.59;5026655;28;20233;-81
2023/09/17 10:07:08;;;;;;;46.75;8.90;;;;;;;26.41;100.00;100191.59;5034609;28;20233;-81
2023/09/17 10:09:36;;;;;;;10.90;2.90;;;;;;;26.59;100.00;100202.28;5039579;28;20316;-81
2023/09/17 10:12:04;;;;;;;41.28;9.10;;;;;;;26.63;100.00;100182.16;5036942;28;20265;-81
2023/09/17 10:14:35;;;;;;;10.23;3.45;;;;;;;26.74;100.00;100168.81;5036630;28;20240;-83
2023/09/17 10:17:02;;;;;;;28.00;6.80;;;;;;;26.85;100.00;100150.00;5034362;28;20225;-81
2023/09/17 10:19:31;;;;;;;11.23;3.20;;;;;;;26.93;100.00;100133.25;5033613;28;20234;-81
2023/09/17 10:21:58;;;;;;;31.23;6.80;;;;;;;27.04;100.00;100103.63;5058801;28;20238;-81
2023/09/17 10:24:26;;;;;;;14.45;3.80;;;;;;;27.63;100.00;100142.34;5023331;28;20260;-80
2023/09/17 10:26:54;;;;;;;17.25;3.30;;;;;;;27.22;100.00;100053.56;5016005;28;20231;-81
2023/09/17 10:29:21;;;;;;;9.98;2.80;;;;;;;27.66;100.00;100115.84;5028833;28;20241;-81
2023/09/17 10:31:48;;;;;;;11.98;2.92;;;;;;;27.55;100.00;100030.59;5027708;28;20294;-80
2023/09/17 10:34:16;;;;;;;16.73;3.58;;;;;;;27.46;100.00;99994.06;5022997;28;20233;-81
2023/09/17 10:36:43;;;;;;;21.95;4.85;;;;;;;27.25;100.00;99943.88;5037513;28;20236;-82
2023/09/17 10:39:27;;;;;;;51.65;9.35;;;;;;;27.83;100.00;100016.03;5014825;28;20229;-78
2023/09/17 10:41:55;;;;;;;11.27;3.25;;;;;;;27.85;100.00;99967.88;5036641;28;20290;-79
2023/09/17 10:44:23;;;;;;;11.52;3.38;;;;;;;27.58;100.00;99894.56;5038431;28;20252;-80
2023/09/17 10:46:51;;;;;;;13.55;3.67;;;;;;;27.43;100.00;99877.50;5037033;28;20238;-80
2023/09/17 10:49:19;;;;;;;11.52;2.85;;;;;;;27.78;100.00;99899.50;5044327;28;20234;-80
2023/09/17 10:51:46;;;;;;;10.38;2.70;;;;;;;27.76;100.00;99868.84;5029188;28;20234;-81
2023/09/17 10:54:13;;;;;;;12.57;3.15;;;;;;;28.17;100.00;99908.50;5017212;28;20246;-81
2023/09/17 10:56:42;;;;;;;18.05;3.92;;;;;;;27.97;100.00;99839.28;5042208;28;20242;-80
2023/09/17 10:59:12;;;;;;;33.78;8.15;;;;;;;28.11;100.00;99841.84;5033588;28;20613;-80
2023/09/17 11:01:41;;;;;;;19.42;4.22;;;;;;;28.03;100.00;99801.66;5045421;28;20230;-80
2023/09/17 11:04:11;;;;;;;45.08;10.63;;;;;;;28.33;100.00;99819.44;5026613;28;20237;-80
2023/09/17 11:06:40;;;;;;;15.45;3.50;;;;;;;28.26;100.00;99780.94;5022555;28;20252;-80
2023/09/17 11:09:07;;;;;;;38.03;9.02;;;;;;;28.23;100.00;99734.97;5024592;28;20248;-80
2023/09/17 11:11:37;;;;;;;18.70;6.15;;;;;;;28.44;100.00;99754.22;5033056;28;20238;-81